TimeCST,TemperatureF,Dew PointF,Humidity,Sea Level PressureIn,VisibilityMPH,Wind Direction,Wind SpeedMPH,Gust SpeedMPH,PrecipitationIn,Events,Conditions,WindDirDegrees,DateUTC
12:17 AM,-0.0,-4.0,83,30.07,-9999.0,WNW,5.8,-,N/A,,Mostly Cloudy,290,2014-02-02 06:17:00
12:54 AM,6.1,1.0,80,30.17,-9999.0,WNW,5.8,-,N/A,,Overcast,290,2014-02-02 06:54:00
1:54 AM,6.1,1.0,80,30.17,-9999.0,WNW,5.8,-,N/A,,Overcast,290,2014-02-02 07:54:00
2:54 AM,3.9,-0.0,84,30.17,-9999.0,WNW,8.1,-,N/A,,Overcast,300,2014-02-02 08:54:00
3:21 AM,3.0,-0.9,84,30.09,-9999.0,WNW,9.2,-,N/A,,Scattered Clouds,300,2014-02-02 09:21:00
3:54 AM,1.0,-2.0,87,30.19,-9999.0,WNW,6.9,-,N/A,,Clear,300,2014-02-02 09:54:00
4:54 AM,-0.9,-5.1,83,30.20,-9999.0,WNW,8.1,-,N/A,,Clear,290,2014-02-02 10:54:00
5:54 AM,-2.9,-7.1,82,30.23,-9999.0,WNW,9.2,-,N/A,,Clear,300,2014-02-02 11:54:00
6:54 AM,-6.0,-9.0,87,30.26,-9999.0,West,3.5,-,N/A,,Clear,280,2014-02-02 12:54:00
7:54 AM,-7.1,-11.9,79,30.29,-9999.0,West,3.5,-,N/A,,Clear,270,2014-02-02 13:54:00
8:54 AM,-4.0,-9.0,79,30.31,-9999.0,NW,8.1,-,N/A,,Clear,310,2014-02-02 14:54:00
9:54 AM,-2.0,-7.1,79,30.32,-9999.0,WNW,6.9,-,N/A,,Clear,300,2014-02-02 15:54:00
10:54 AM,-0.0,-6.0,76,30.34,-9999.0,West,5.8,-,N/A,,Clear,260,2014-02-02 16:54:00
11:54 AM,1.9,-6.0,69,30.31,-9999.0,WNW,6.9,-,N/A,,Clear,290,2014-02-02 17:54:00
12:54 PM,3.9,-6.0,64,30.28,-9999.0,West,8.1,-,N/A,,Clear,280,2014-02-02 18:54:00
1:54 PM,6.1,-6.0,58,30.29,-9999.0,WNW,8.1,-,N/A,,Clear,300,2014-02-02 19:54:00
2:54 PM,7.0,-5.1,58,30.30,-9999.0,West,6.9,-,N/A,,Clear,260,2014-02-02 20:54:00
3:54 PM,8.1,-6.0,53,30.32,-9999.0,WSW,5.8,-,N/A,,Clear,250,2014-02-02 21:54:00
4:54 PM,6.1,-7.1,55,30.33,-9999.0,West,6.9,-,N/A,,Clear,260,2014-02-02 22:54:00
5:54 PM,3.0,-9.0,57,30.33,-9999.0,West,4.6,-,N/A,,Clear,270,2014-02-02 23:54:00
6:54 PM,-0.0,-11.0,60,30.33,-9999.0,West,5.8,-,N/A,,Clear,260,2014-02-03 00:54:00
7:54 PM,-2.0,-11.0,66,30.31,-9999.0,West,5.8,-,N/A,,Clear,270,2014-02-03 01:54:00
8:54 PM,-6.0,-13.0,72,30.30,-9999.0,WSW,3.5,-,N/A,,Clear,250,2014-02-03 02:54:00
9:54 PM,-8.0,-15.0,71,30.31,-9999.0,WSW,3.5,-,N/A,,Clear,250,2014-02-03 03:54:00
10:54 PM,-6.0,-11.9,75,30.32,-9999.0,SW,5.8,-,N/A,,Clear,230,2014-02-03 04:54:00
11:54 PM,-4.0,-11.0,72,30.33,-9999.0,SW,4.6,-,N/A,,Clear,220,2014-02-03 05:54:00